ADDS METAR Data INFO
IDs: Format: Raw Decoded Include TAF

Data at: 0310 UTC 17 Jan 2018

KPSF 170302Z AUTO 00000KT 3/4SM -SN BR BKN010 OVC018 M02/M04 A3033 RMK AO2 P0001 T10221039
KPSF 170254Z AUTO 00000KT 1SM -SN BR BKN012 OVC018 M02/M04 A3033 RMK AO2 SLP287 P0004 60007 T10221039 56005
KPSF 170154Z AUTO 34003KT 1 1/4SM -SN BR SCT008 OVC020 M02/M04 A3033 RMK AO2 SLP288 P0002 T10221039
KPSF 170054Z AUTO 00000KT 1 1/4SM -SN BR OVC008 M02/M04 A3033 RMK AO2 SLP290 P0001 T10221039
KPSF 170019Z AUTO 00000KT 1 1/2SM -SN BR BKN009 OVC018 M02/M04 A3034 RMK AO2 P0000 T10221039
KPSF 162354Z AUTO VRB03KT 1 1/2SM -SN BR OVC017 M02/M04 A3034 RMK AO2 SLP295 P0001 60003 T10221044 11011 21022 52002
KPSF 162328Z AUTO 19004KT 2SM -SN BR FEW006 OVC015 M02/M04 A3034 RMK AO2 P0000 T10221044
KPSF 162314Z AUTO 00000KT 1 1/2SM -SN BR FEW008 BKN012 OVC021 M02/M04 A3034 RMK AO2 P0000 T10221039
KPSF 162254Z AUTO 00000KT 2SM -SN BR OVC012 M02/M04 A3034 RMK AO2 SLP293 P0001 T10221039
KPSF 162240Z AUTO 00000KT 2 1/2SM -SN BR BKN010 BKN014 OVC029 M02/M04 A3034 RMK AO2 P0001 T10221039
KPSF 162225Z AUTO 35003KT 2SM -SN BR BKN009 BKN013 OVC025 M02/M04 A3033 RMK AO2 P0000 T10221039
KPSF 162218Z AUTO 00000KT 1 3/4SM -SN BR SCT009 OVC013 M02/M04 A3034 RMK AO2 P0000 T10221039
KPSF 162154Z AUTO 00000KT 1 1/4SM -SN BR BKN011 BKN014 OVC019 M02/M04 A3034 RMK AO2 SLP293 P0001 T10221039
KPSF 162149Z AUTO 00000KT 1SM -SN BR BKN013 OVC019 M02/M04 A3034 RMK AO2 P0001
KPSF 162140Z AUTO 00000KT 3/4SM -SN BR BKN013 OVC023 M02/M04 A3034 RMK AO2 P0001 T10221044
KPSF 162128Z AUTO 00000KT 1 1/4SM -SN BR BKN013 OVC027 M02/M04 A3034 RMK AO2 P0000 T10221044
KPSF 162054Z AUTO 00000KT 1 1/4SM -SN FEW014 OVC025 M02/M04 A3034 RMK AO2 SLP293 P0000 60000 T10171044 51001
KPSF 162012Z AUTO VRB03KT 2 1/2SM -SN OVC020 M02/M05 A3034 RMK AO2 P0000 T10171050
KPSF 161954Z AUTO 24007KT 4SM -SN BKN020 OVC034 M02/M05 A3034 RMK AO2 SLP292 P0000 T10171050
KPSF 161949Z AUTO 23005KT 3SM -SN BKN020 OVC035 M02/M05 A3034 RMK AO2 P0000
KPSF 161928Z AUTO 24008KT 3SM -SN FEW020 BKN032 OVC040 M02/M05 A3033 RMK AO2 P0000 T10171050
KPSF 161854Z AUTO VRB04KT 2 1/2SM -SN SCT017 OVC033 M02/M05 A3034 RMK AO2 SNE1755B38 SLP292 P0000 T10171050
KPSF 161851Z AUTO 21008KT 2 1/2SM -SN SCT017 OVC033 M02/M06 A3034 RMK AO2 SNE1755B38 P0000
KPSF 161833Z AUTO 22007KT 8SM BKN017 OVC041 M02/M06 A3034 RMK AO2 SNE1755 P0000 T10171056
KPSF 161825Z AUTO 24007KT 7SM SCT017 OVC041 M02/M06 A3034 RMK AO2 SNE1755 P0000 T10171056
KPSF 161754Z AUTO 21007KT 5SM -SN OVC017 M02/M06 A3035 RMK AO2 SNE00B39 SLP297 P0000 60001 T10221056 11022 21078 58020
KPSF 161704Z AUTO VRB04KT 5SM HZ OVC015 M03/M06 A3036 RMK AO2 SNE00 P0000 T10281061
KPSF 161654Z AUTO 00000KT 3SM -SN BKN013 OVC018 M03/M07 A3037 RMK AO2 SLP306 P0001 T10331067
KPSF 161648Z AUTO 00000KT 2 1/2SM -SN BKN013 OVC018 M03/M07 A3037 RMK AO2 P0001
KPSF 161603Z AUTO 00000KT 1 1/2SM -SN OVC015 M04/M07 A3040 RMK AO2 P0000 T10441072
KPSF 161554Z AUTO 00000KT 2SM -SN OVC015 M04/M07 A3040 RMK AO2 SNB01 SLP316 P0000 T10441072
KPSF 161547Z AUTO 00000KT 2 1/2SM -SN BKN016 OVC020 M04/M08 A3041 RMK AO2 SNB01 P0000 T10441078
KPSF 161526Z AUTO 00000KT 1 3/4SM -SN BKN016 OVC031 M05/M08 A3041 RMK AO2 SNB01 P0000 T10501083
KPSF 161514Z AUTO 00000KT 2 1/2SM -SN BKN014 BKN019 OVC036 M05/M08 A3040 RMK AO2 SNB01 P0000 T10501083
KPSF 161502Z AUTO 30003KT 5SM -SN OVC015 M06/M08 A3041 RMK AO2 SNB01 P0000 T10561083
KPSF 161454Z AUTO 28003KT 7SM OVC014 M06/M09 A3041 RMK AO2 SNE09 SLP319 P0000 60000 T10561089 50002
KPSF 161438Z AUTO VRB03KT 10SM OVC014 M06/M09 A3041 RMK AO2 SNE09 P0000 T10561089
KPSF 161413Z AUTO 00000KT 4SM HZ OVC015 M06/M09 A3041 RMK AO2 SNE09 P0000 T10611089
KPSF 161354Z AUTO 00000KT 2 1/2SM -SN BKN016 OVC028 M07/M09 A3041 RMK AO2 SNB1258 SLP319 P0000 T10671094
KPSF 161352Z AUTO 03003KT 2 1/2SM -SN SCT016 OVC028 M07/M09 A3040 RMK AO2 SNB1258 P0000
KPSF 161323Z AUTO 00000KT 1SM -SN FEW015 OVC026 M07/M09 A3040 RMK AO2 SNB1258 P0000 T10671094
KPSF 161315Z AUTO 00000KT 1 1/4SM -SN BR SCT015 OVC030 M07/M09 A3040 RMK AO2 SNB1258 P0000 T10721094
KPSF 161311Z AUTO 00000KT 2SM -SN BKN015 OVC034 M07/M10 A3040 RMK AO2 SNB1258 P0000 T10721100
KPSF 161303Z AUTO 00000KT 2 1/2SM -SN SCT014 OVC043 M07/M10 A3040 RMK AO2 SNB1258 P0000 T10721100
KPSF 161254Z AUTO 00000KT 5SM HZ BKN016 OVC048 M07/M10 A3040 RMK AO2 SLP317 T10721100
KPSF 161251Z AUTO 00000KT 5SM HZ BKN016 BKN022 OVC050 M07/M10 A3040 RMK AO2
KPSF 161235Z AUTO 03003KT 8SM SCT014 SCT022 OVC055 M07/M10 A3039 RMK AO2 T10721100
KPSF 161154Z AUTO 00000KT 10SM OVC012 M08/M10 A3040 RMK AO2 SNE14 SLP315 P0000 60000 T10781100 11078 21094 53001
KPSF 161054Z AUTO 01004KT 4SM -SN OVC012 M08/M11 A3039 RMK AO2 SLP312 P0000 T10781106
KPSF 161042Z AUTO 05004KT 2 1/2SM -SN OVC012 M08/M11 A3038 RMK AO2 P0000 T10781111
KPSF 160954Z AUTO 00000KT 4SM -SN OVC013 M08/M11 A3039 RMK AO2 SNB20 SLP312 P0000 T10781111
KPSF 160854Z AUTO 00000KT 10SM OVC014 M08/M12 A3039 RMK AO2 SLP314 T10781117 50001
KPSF 160754Z AUTO 08003KT 10SM OVC018 M08/M12 A3039 RMK AO2 SLP315 T10781117
KPSF 160733Z AUTO 00000KT 10SM BKN019 OVC036 M08/M12 A3040 RMK AO2 T10831122
KPSF 160654Z AUTO 00000KT 10SM SCT024 OVC070 M09/M13 A3040 RMK AO2 SLP317 T10891128
KPSF 160554Z AUTO 00000KT 10SM FEW075 M11/M13 A3039 RMK AO2 SLP316 T11061133 11061 21106 58015
KPSF 160454Z AUTO 00000KT 10SM FEW037 M09/M13 A3041 RMK AO2 SLP320 T10941133 410501161
KPSF 160354Z AUTO 00000KT 10SM CLR M08/M13 A3042 RMK AO2 SLP328 T10831133
KPSF 160254Z AUTO 07003KT 10SM FEW029 M08/M13 A3043 RMK AO2 SLP332 T10781133 58011
KPSF 160217Z AUTO VRB04KT 10SM FEW019 BKN030 M07/M14 A3044 RMK AO2 T10721139
KPSF 160154Z AUTO 07003KT 10SM BKN019 OVC029 M07/M14 A3046 RMK AO2 SLP341 T10671139
KPSF 160054Z AUTO 06003KT 10SM OVC028 M07/M16 A3045 RMK AO2 SLP339 T10671156
KPSF 152354Z AUTO 08003KT 10SM OVC029 M06/M14 A3047 RMK AO2 SLP345 T10611139 11050 21067 58003
KPSF 152254Z AUTO 06004KT 10SM OVC029 M06/M14 A3048 RMK AO2 SLP350 T10611144
KPSF 152154Z AUTO 05005KT 10SM OVC028 M06/M14 A3047 RMK AO2 SLP345 T10561144
KPSF 152054Z AUTO 00000KT 10SM OVC027 M06/M14 A3047 RMK AO2 SLP347 T10561144 56016
KPSF 151954Z AUTO 00000KT 10SM OVC028 M06/M16 A3048 RMK AO2 SLP349 T10561156
KPSF 151941Z AUTO 36003KT 10SM OVC028 M06/M17 A3048 RMK AO2 T10561172
KPSF 151854Z AUTO 05005KT 10SM CLR M06/M17 A3051 RMK AO2 SLP359 T10561172
KPSF 151754Z AUTO 07004KT 10SM CLR M07/M17 A3052 RMK AO2 SLP367 T10671167 11061 21139 58035
KPSF 151654Z AUTO 07007KT 10SM CLR M07/M17 A3057 RMK AO2 SLP383 T10671172
KPSF 151554Z AUTO 00000KT 10SM CLR M08/M18 A3060 RMK AO2 SLP396 T10831178